createdAt,value
2023-07-23T00:00:23.873Z,5.82
2023-07-23T00:03:30.205Z,7.47
2023-07-23T00:06:35.767Z,5.90
2023-07-23T00:09:41.769Z,6.93
2023-07-23T00:12:47.852Z,5.22
2023-07-23T00:15:53.752Z,5.80
2023-07-23T00:18:59.605Z,6.65
2023-07-23T00:22:05.758Z,5.57
2023-07-23T00:25:11.706Z,6.05
2023-07-23T00:28:17.905Z,5.97
2023-07-23T00:31:23.983Z,6.45
2023-07-23T00:34:29.732Z,6.28
2023-07-23T00:37:35.368Z,8.57
2023-07-23T00:40:41.343Z,8.35
2023-07-23T00:43:47.604Z,9.45
2023-07-23T00:46:55.680Z,10.60
2023-07-23T00:50:02.086Z,8.55
2023-07-23T00:53:08.995Z,10.82
2023-07-23T00:56:15.581Z,9.43
2023-07-23T00:59:21.527Z,10.68
2023-07-23T01:02:27.789Z,15.48
2023-07-23T01:05:35.092Z,10.57
2023-07-23T01:08:44.528Z,10.75
2023-07-23T01:11:52.390Z,9.27
2023-07-23T01:14:59.571Z,10.77
2023-07-23T01:18:07.086Z,7.70
2023-07-23T01:21:13.621Z,10.77
2023-07-23T01:24:19.608Z,7.35
2023-07-23T01:27:25.846Z,7.50
2023-07-23T01:30:32.215Z,12.52
2023-07-23T01:33:37.606Z,7.60
2023-07-23T01:36:45.190Z,8.57
2023-07-23T01:39:51.815Z,6.50
2023-07-23T01:42:57.916Z,9.75
2023-07-23T01:46:03.380Z,7.28
2023-07-23T01:49:09.118Z,7.03
2023-07-23T01:52:14.984Z,11.25
2023-07-23T01:55:21.468Z,6.85
2023-07-23T01:58:27.315Z,9.95
2023-07-23T02:01:34.046Z,7.38
2023-07-23T02:04:40.483Z,10.13
2023-07-23T02:07:47.248Z,9.10
2023-07-23T02:10:59.719Z,7.82
2023-07-23T02:14:05.700Z,7.28
2023-07-23T02:17:11.908Z,7.72
2023-07-23T02:20:22.589Z,11.27
2023-07-23T02:23:28.577Z,10.75
2023-07-23T02:26:34.946Z,8.63
2023-07-23T02:29:40.880Z,10.48
2023-07-23T02:32:46.856Z,5.80
2023-07-23T02:35:52.804Z,6.05
2023-07-23T02:38:58.588Z,6.13
2023-07-23T02:42:05.017Z,7.50
2023-07-23T02:45:11.122Z,5.35
2023-07-23T02:48:17.725Z,6.63
2023-07-23T02:51:23.718Z,4.75
2023-07-23T02:54:29.940Z,6.47
2023-07-23T02:57:35.412Z,3.95
2023-07-23T03:00:41.808Z,8.48
2023-07-23T03:03:49.194Z,6.15
2023-07-23T03:06:56.144Z,4.13
2023-07-23T03:10:02.880Z,6.60
2023-07-23T03:13:09.005Z,4.82
2023-07-23T03:16:15.786Z,5.35
2023-07-23T03:19:21.270Z,3.47
2023-07-23T03:22:26.940Z,10.60
2023-07-23T03:25:33.255Z,5.70
2023-07-23T03:28:39.525Z,5.55
2023-07-23T03:31:45.694Z,6.13
2023-07-23T03:34:51.445Z,6.43
2023-07-23T03:37:58.089Z,6.10
2023-07-23T03:41:04.303Z,5.40
2023-07-23T03:44:10.061Z,6.50
2023-07-23T03:47:19.079Z,4.78
2023-07-23T03:50:26.142Z,5.70
2023-07-23T03:53:32.169Z,5.32
2023-07-23T03:56:38.001Z,4.78
2023-07-23T03:59:47.042Z,5.88
2023-07-23T04:02:53.144Z,5.85
2023-07-23T04:05:58.893Z,6.53
2023-07-23T04:09:05.055Z,5.63
2023-07-23T04:12:14.509Z,7.18
2023-07-23T04:15:20.644Z,4.20
2023-07-23T04:18:26.049Z,5.63
2023-07-23T04:21:31.837Z,3.78
2023-07-23T04:24:38.043Z,4.18
2023-07-23T04:27:44.580Z,4.43
2023-07-23T04:30:51.419Z,7.10
2023-07-23T04:33:58.157Z,3.95
2023-07-23T04:37:03.838Z,7.45
2023-07-23T04:40:11.189Z,5.20
2023-07-23T04:43:17.475Z,8.10
2023-07-23T04:46:24.331Z,9.02
2023-07-23T04:49:30.067Z,7.38
2023-07-23T04:52:36.232Z,5.75
2023-07-23T04:55:42.231Z,8.50
2023-07-23T04:58:48.218Z,5.72
2023-07-23T05:01:53.821Z,7.47
2023-07-23T05:05:00.022Z,3.58
2023-07-23T05:08:05.933Z,4.40
2023-07-23T05:11:11.888Z,4.78
2023-07-23T05:14:18.000Z,4.50
2023-07-23T05:17:24.039Z,6.18
2023-07-23T05:20:29.661Z,7.22
2023-07-23T05:23:35.627Z,8.82
2023-07-23T05:26:41.339Z,5.28
2023-07-23T05:29:47.145Z,6.22
2023-07-23T05:32:53.001Z,5.10
2023-07-23T05:35:59.268Z,5.32
2023-07-23T05:39:05.042Z,4.60
2023-07-23T05:42:10.759Z,6.65
2023-07-23T05:45:16.194Z,5.45
2023-07-23T05:48:22.969Z,5.20
2023-07-23T05:51:29.117Z,7.38
2023-07-23T05:54:35.258Z,6.55
2023-07-23T05:57:41.606Z,4.55
2023-07-23T06:00:47.961Z,7.15
2023-07-23T06:03:54.521Z,5.38
2023-07-23T06:07:00.189Z,5.50
2023-07-23T06:10:06.289Z,4.85
2023-07-23T06:13:12.422Z,4.90
2023-07-23T06:16:18.211Z,3.95
2023-07-23T06:19:24.563Z,5.28
2023-07-23T06:22:30.624Z,5.13
2023-07-23T06:25:36.365Z,6.68
2023-07-23T06:28:41.929Z,7.43
2023-07-23T06:31:47.986Z,6.07
2023-07-23T06:34:53.731Z,5.38
2023-07-23T06:37:58.816Z,3.20
2023-07-23T06:41:06.350Z,4.10
2023-07-23T06:44:12.490Z,3.97
2023-07-23T06:47:19.705Z,3.17
2023-07-23T06:50:26.227Z,5.03
2023-07-23T06:53:32.402Z,8.30
2023-07-23T06:56:38.542Z,3.45
2023-07-23T06:59:44.862Z,4.38
2023-07-23T07:02:50.916Z,5.05
2023-07-23T07:05:56.990Z,4.32
2023-07-23T07:09:02.795Z,6.10
2023-07-23T07:12:09.415Z,4.25
2023-07-23T07:15:15.712Z,4.90
2023-07-23T07:18:21.966Z,4.40
2023-07-23T07:21:28.649Z,6.47
2023-07-23T11:41:02.419Z,7.78
2023-07-23T11:44:08.618Z,8.60
2023-07-23T11:47:14.100Z,8.15
2023-07-23T11:50:21.538Z,7.28
2023-07-23T11:53:38.540Z,5.05
2023-07-23T11:56:49.409Z,8.52
2023-07-23T11:59:54.953Z,8.70
2023-07-23T12:03:01.199Z,8.10
2023-07-23T12:06:07.306Z,6.95
2023-07-23T12:09:13.473Z,8.15
2023-07-23T12:12:22.944Z,7.78
2023-07-23T12:15:28.698Z,8.70
2023-07-23T12:18:48.754Z,7.75
2023-07-23T12:21:59.376Z,9.48
2023-07-23T12:25:05.264Z,5.50
2023-07-23T12:28:10.988Z,8.90
2023-07-23T12:31:16.729Z,7.88
2023-07-23T12:34:23.280Z,10.77
2023-07-23T12:37:29.439Z,5.88
2023-07-23T12:40:35.143Z,7.10
2023-07-23T12:43:41.451Z,6.82
2023-07-23T12:46:47.309Z,7.78
2023-07-23T12:49:52.952Z,8.85
2023-07-23T12:52:58.891Z,8.95
2023-07-23T12:56:04.626Z,8.77
2023-07-23T12:59:10.126Z,7.55
2023-07-23T13:02:15.935Z,7.00
2023-07-23T13:05:23.800Z,10.38
2023-07-23T13:08:29.670Z,7.57
2023-07-23T13:11:35.581Z,7.50
2023-07-23T13:14:41.462Z,7.35
2023-07-23T13:17:49.282Z,7.13
2023-07-23T13:20:55.079Z,6.45
2023-07-23T13:24:00.299Z,10.20
2023-07-23T13:27:06.249Z,8.98
2023-07-23T13:30:11.632Z,7.60
2023-07-23T13:33:19.043Z,6.13
2023-07-23T13:36:24.308Z,9.45
2023-07-23T13:39:30.184Z,7.68
2023-07-23T13:42:35.794Z,8.45
2023-07-23T13:45:41.758Z,8.82
2023-07-23T13:48:47.031Z,8.52
2023-07-23T13:51:52.952Z,8.52
2023-07-23T13:54:59.039Z,5.82
2023-07-23T13:58:04.290Z,9.45
2023-07-23T14:01:09.720Z,8.48
2023-07-23T14:04:14.998Z,8.65
2023-07-23T14:07:20.372Z,8.82
2023-07-23T14:10:26.011Z,7.47
2023-07-23T14:13:31.729Z,11.52
2023-07-23T14:16:37.336Z,7.63
2023-07-23T14:19:42.635Z,9.45
2023-07-23T14:22:47.854Z,11.77
2023-07-23T14:25:53.333Z,8.80
2023-07-23T14:28:59.085Z,6.30
2023-07-23T14:32:06.599Z,10.48
2023-07-23T14:35:12.101Z,7.25
2023-07-23T14:38:17.653Z,7.65
2023-07-23T14:41:22.829Z,10.07
2023-07-23T14:44:28.352Z,6.03
2023-07-23T14:47:33.761Z,10.02
2023-07-23T14:50:39.683Z,7.57
2023-07-23T14:53:45.445Z,8.40
2023-07-23T14:56:57.388Z,13.27
2023-07-23T15:00:06.554Z,6.03
2023-07-23T15:03:17.883Z,7.95
2023-07-23T15:06:23.486Z,9.25
2023-07-23T15:09:28.500Z,8.88
2023-07-23T15:12:34.342Z,7.25
2023-07-23T15:15:39.819Z,8.70
2023-07-23T15:18:45.717Z,10.30
2023-07-23T15:21:51.858Z,6.68
2023-07-23T15:24:57.617Z,9.95
2023-07-23T15:28:07.447Z,8.98
2023-07-23T15:31:13.340Z,9.35
2023-07-23T15:34:20.714Z,9.20
2023-07-23T15:37:26.555Z,7.57
2023-07-23T15:40:32.166Z,8.80
2023-07-23T15:43:37.435Z,7.95
2023-07-23T15:46:42.883Z,9.30
2023-07-23T15:49:48.426Z,7.65
2023-07-23T15:52:54.152Z,8.77
2023-07-23T15:55:59.879Z,9.85
2023-07-23T15:59:05.900Z,10.15
2023-07-23T16:02:11.039Z,8.68
2023-07-23T16:05:16.816Z,8.00
2023-07-23T16:08:22.255Z,11.38
2023-07-23T16:11:28.324Z,8.45
2023-07-23T16:14:34.220Z,9.45
2023-07-23T16:17:41.381Z,6.38
2023-07-23T16:20:47.468Z,6.38
2023-07-23T16:23:52.737Z,10.23
2023-07-23T16:26:58.107Z,11.60
2023-07-23T16:30:03.720Z,7.32
2023-07-23T16:33:10.399Z,10.80
2023-07-23T16:36:17.224Z,9.40
2023-07-23T16:39:26.611Z,8.68
2023-07-23T16:42:32.392Z,9.57
2023-07-23T16:45:38.292Z,11.00
2023-07-23T16:48:43.895Z,10.07
2023-07-23T16:51:49.917Z,12.27
2023-07-23T16:54:56.123Z,13.93
2023-07-23T16:58:01.562Z,10.40
2023-07-23T17:01:07.283Z,9.57
2023-07-23T17:04:12.535Z,11.95
2023-07-23T17:07:18.030Z,10.07
2023-07-23T17:10:24.313Z,11.07
2023-07-23T17:13:30.657Z,10.38
2023-07-23T17:16:37.666Z,7.80
2023-07-23T17:19:44.647Z,14.30
2023-07-23T17:22:50.571Z,7.60
2023-07-23T17:25:55.922Z,10.43
2023-07-23T17:29:01.862Z,12.60
2023-07-23T17:32:08.115Z,15.73
2023-07-23T17:35:13.899Z,10.32
2023-07-23T17:38:19.616Z,10.75
2023-07-23T17:41:25.540Z,14.40
2023-07-23T17:44:31.841Z,12.07
2023-07-23T17:47:38.005Z,10.98
2023-07-23T17:50:44.082Z,10.68
2023-07-23T17:53:49.652Z,8.98
2023-07-23T17:56:55.003Z,10.98
2023-07-23T18:00:00.137Z,10.10
2023-07-23T18:03:05.652Z,10.35
2023-07-23T18:06:11.350Z,9.70
2023-07-23T18:09:17.725Z,8.25
2023-07-23T18:12:23.423Z,13.82
2023-07-23T18:15:29.344Z,11.48
2023-07-23T18:18:35.255Z,9.90
2023-07-23T18:21:41.071Z,11.50
2023-07-23T18:24:47.101Z,12.70
2023-07-23T18:27:53.104Z,11.07
2023-07-23T18:31:00.028Z,8.77
2023-07-23T18:34:07.095Z,11.07
2023-07-23T18:37:13.091Z,11.32
2023-07-23T18:40:18.579Z,16.25
2023-07-23T18:43:24.516Z,9.35
2023-07-23T18:46:30.898Z,11.10
2023-07-23T18:49:37.147Z,13.75
2023-07-23T18:52:42.697Z,13.55
2023-07-23T18:55:48.329Z,12.20
2023-07-23T18:58:55.500Z,12.60
2023-07-23T19:02:00.515Z,10.80
2023-07-23T19:05:06.457Z,8.75
2023-07-23T19:08:12.527Z,10.13
2023-07-23T19:11:18.661Z,10.35
2023-07-23T19:14:24.948Z,11.88
2023-07-23T19:17:31.264Z,11.25
2023-07-23T19:20:37.196Z,13.68
2023-07-23T19:23:43.834Z,8.27
2023-07-23T19:26:49.849Z,15.10
2023-07-23T19:29:54.994Z,12.77
2023-07-23T19:33:00.631Z,13.55
2023-07-23T19:36:06.043Z,14.50
2023-07-23T19:39:11.999Z,15.70
2023-07-23T19:42:18.532Z,11.52
2023-07-23T19:45:24.515Z,10.57
2023-07-23T19:48:30.562Z,10.32
2023-07-23T19:51:36.200Z,12.30
2023-07-23T19:54:42.434Z,14.82
2023-07-23T19:57:48.411Z,15.55
2023-07-23T20:00:54.289Z,15.32
2023-07-23T20:03:59.931Z,14.38
2023-07-23T20:07:07.068Z,15.23
2023-07-23T20:10:15.057Z,12.27
2023-07-23T20:13:20.970Z,14.02
2023-07-23T20:16:26.768Z,14.95
2023-07-23T20:19:32.461Z,15.50
2023-07-23T20:22:39.388Z,14.25
2023-07-23T20:25:55.183Z,12.65
2023-07-23T20:29:00.742Z,15.10
2023-07-23T20:32:07.182Z,14.98
2023-07-23T20:35:13.769Z,13.07
2023-07-23T20:38:19.465Z,16.88
2023-07-23T20:41:25.566Z,13.77
2023-07-23T20:44:31.409Z,15.30
2023-07-23T20:47:37.486Z,18.15
2023-07-23T20:50:43.467Z,22.92
2023-07-23T20:53:49.972Z,15.20
2023-07-23T20:56:55.934Z,19.00
2023-07-23T21:00:01.516Z,18.70
2023-07-23T21:03:07.380Z,18.25
2023-07-23T21:06:13.334Z,20.08
2023-07-23T21:09:19.282Z,18.38
2023-07-23T21:12:24.802Z,19.40
2023-07-23T21:15:32.830Z,15.20
2023-07-23T21:18:38.948Z,19.90
2023-07-23T21:21:45.046Z,14.02
2023-07-23T21:24:51.169Z,17.35
2023-07-23T21:27:56.892Z,18.42
2023-07-23T21:31:02.761Z,20.98
2023-07-23T21:34:08.809Z,16.60
2023-07-23T21:37:14.486Z,20.10
2023-07-23T21:40:20.348Z,16.67
2023-07-23T21:43:26.068Z,23.08
2023-07-23T21:46:32.211Z,14.65
2023-07-23T21:49:38.128Z,19.83
2023-07-23T21:52:44.396Z,22.13
2023-07-23T21:55:50.047Z,21.38
2023-07-23T21:58:56.151Z,18.25
2023-07-23T22:02:02.135Z,22.52
2023-07-23T22:05:08.414Z,15.82
2023-07-23T22:08:15.409Z,16.90
2023-07-23T22:11:21.241Z,19.00
2023-07-23T22:14:28.935Z,19.17
2023-07-23T22:17:34.710Z,17.52
2023-07-23T22:20:40.462Z,17.95
2023-07-23T22:23:45.936Z,19.90
2023-07-23T22:26:51.855Z,16.85
2023-07-23T22:29:57.896Z,16.33
2023-07-23T22:33:03.999Z,19.52
2023-07-23T22:36:09.915Z,17.50
2023-07-23T22:39:15.617Z,18.98
2023-07-23T22:42:21.432Z,20.90
2023-07-23T22:45:27.135Z,18.60
2023-07-23T22:48:34.946Z,18.23
2023-07-23T22:51:40.905Z,20.67
2023-07-23T22:54:46.965Z,19.63
2023-07-23T22:57:52.669Z,15.25
2023-07-23T23:01:03.292Z,19.08
2023-07-23T23:04:09.096Z,18.25
2023-07-23T23:07:15.081Z,21.70
2023-07-23T23:10:21.021Z,16.70
2023-07-23T23:13:26.759Z,23.08
2023-07-23T23:16:32.913Z,17.77
2023-07-23T23:19:38.803Z,22.58
2023-07-23T23:22:44.225Z,18.58
2023-07-23T23:25:51.206Z,20.98
2023-07-23T23:28:56.835Z,22.70
2023-07-23T23:32:02.858Z,21.92
2023-07-23T23:35:09.103Z,21.98
2023-07-23T23:38:15.063Z,23.58
2023-07-23T23:41:20.744Z,21.33
2023-07-23T23:44:26.709Z,20.23
2023-07-23T23:47:32.600Z,22.70
2023-07-23T23:50:39.121Z,30.50
2023-07-23T23:53:44.677Z,20.52
2023-07-23T23:57:01.120Z,20.95
